createdAt,value
2023-12-21T00:01:36.180Z,4.10
2023-12-21T00:04:04.990Z,4.10
2023-12-21T00:06:32.948Z,4.10
2023-12-21T00:09:00.018Z,4.10
2023-12-21T00:11:28.072Z,4.10
2023-12-21T00:13:57.832Z,4.10
2023-12-21T00:16:24.770Z,4.10
2023-12-21T00:18:52.968Z,4.10
2023-12-21T00:21:39.855Z,4.10
2023-12-21T00:24:07.044Z,4.10
2023-12-21T00:26:34.166Z,4.00
2023-12-21T00:29:01.148Z,4.10
2023-12-21T00:31:28.456Z,4.10
2023-12-21T00:33:55.563Z,4.10
2023-12-21T00:36:23.281Z,4.00
2023-12-21T00:38:50.344Z,4.10
2023-12-21T00:41:17.433Z,4.10
2023-12-21T00:43:44.534Z,4.00
2023-12-21T00:46:11.518Z,4.00
2023-12-21T00:48:38.511Z,4.10
2023-12-21T00:51:07.268Z,4.10
2023-12-21T00:53:34.231Z,4.10
2023-12-21T00:56:03.185Z,4.10
2023-12-21T00:58:30.336Z,4.10
2023-12-21T01:00:57.546Z,4.10
2023-12-21T01:03:25.253Z,4.10
2023-12-21T01:05:52.152Z,4.10
2023-12-21T01:08:21.901Z,4.10
2023-12-21T01:10:51.048Z,4.10
2023-12-21T01:13:18.211Z,4.10
2023-12-21T01:15:45.164Z,4.10
2023-12-21T01:18:14.984Z,4.10
2023-12-21T01:20:42.186Z,4.10
2023-12-21T01:23:11.707Z,4.20
2023-12-21T01:25:41.588Z,4.20
2023-12-21T01:28:08.710Z,4.20
2023-12-21T01:30:35.840Z,4.20
2023-12-21T01:33:03.376Z,4.20
2023-12-21T01:35:31.154Z,4.20
2023-12-21T01:38:00.570Z,4.20
2023-12-21T01:40:27.458Z,4.20
2023-12-21T01:42:54.484Z,4.10
2023-12-21T01:45:21.582Z,4.20
2023-12-21T01:47:49.676Z,4.20
2023-12-21T01:50:17.971Z,4.20
2023-12-21T01:52:46.165Z,4.20
2023-12-21T01:55:15.042Z,4.20
2023-12-21T01:57:43.158Z,4.20
2023-12-21T02:00:11.646Z,4.20
2023-12-21T02:02:38.489Z,4.20
2023-12-21T02:05:06.088Z,4.30
2023-12-21T02:07:33.630Z,4.30
2023-12-21T02:10:00.980Z,4.30
2023-12-21T02:12:28.115Z,4.30
2023-12-21T02:14:55.134Z,4.30
2023-12-21T02:17:22.820Z,4.30
2023-12-21T02:19:51.679Z,4.30
2023-12-21T02:22:26.187Z,4.40
2023-12-21T02:24:56.269Z,4.30
2023-12-21T02:27:23.149Z,4.40
2023-12-21T02:29:55.328Z,4.30
2023-12-21T02:32:22.192Z,4.30
2023-12-21T02:34:49.374Z,4.40
2023-12-21T02:37:18.233Z,4.40
2023-12-21T02:39:45.367Z,4.40
2023-12-21T02:42:14.993Z,4.30
2023-12-21T02:44:41.798Z,4.40
2023-12-21T02:47:08.781Z,4.40
2023-12-21T02:49:35.861Z,4.40
2023-12-21T02:52:02.926Z,4.50
2023-12-21T02:54:30.013Z,4.40
2023-12-21T02:56:57.120Z,4.40
2023-12-21T02:59:24.233Z,4.40
2023-12-21T03:01:51.320Z,4.40
2023-12-21T03:04:18.150Z,4.50
2023-12-21T03:06:45.086Z,4.40
2023-12-21T03:09:12.016Z,4.50
2023-12-21T03:11:38.959Z,4.50
2023-12-21T03:14:05.853Z,4.40
2023-12-21T03:16:34.762Z,4.50
2023-12-21T03:19:01.973Z,4.50
2023-12-21T03:21:28.914Z,4.60
2023-12-21T03:23:55.835Z,4.60
2023-12-21T03:26:22.631Z,4.60
2023-12-21T03:28:49.648Z,4.60
2023-12-21T03:31:19.489Z,4.60
2023-12-21T03:33:46.845Z,4.60
2023-12-21T03:36:14.568Z,4.60
2023-12-21T03:38:41.569Z,4.60
2023-12-21T03:41:08.616Z,4.60
2023-12-21T03:43:37.036Z,4.60
2023-12-21T03:46:06.797Z,4.60
2023-12-21T03:48:33.825Z,4.60
2023-12-21T03:51:00.998Z,4.70
2023-12-21T03:53:27.864Z,4.70
2023-12-21T03:55:54.790Z,4.70
2023-12-21T03:58:21.717Z,4.70
2023-12-21T04:00:48.653Z,4.70
2023-12-21T04:03:15.572Z,4.70
2023-12-21T04:05:42.679Z,4.70
2023-12-21T04:08:10.183Z,4.70
2023-12-21T04:10:37.070Z,4.80
2023-12-21T04:13:04.068Z,4.80
2023-12-21T04:15:31.059Z,4.80
2023-12-21T04:17:58.567Z,4.80
2023-12-21T04:20:25.787Z,4.80
2023-12-21T04:22:52.643Z,4.80
2023-12-21T04:25:19.523Z,4.80
2023-12-21T04:27:46.495Z,4.80
2023-12-21T04:30:17.071Z,4.80
2023-12-21T04:32:44.410Z,4.80
2023-12-21T04:35:11.462Z,4.80
2023-12-21T04:37:38.508Z,4.80
2023-12-21T04:40:06.044Z,4.80
2023-12-21T04:42:32.926Z,4.80
2023-12-21T04:44:59.745Z,4.80
2023-12-21T04:47:26.813Z,4.80
2023-12-21T04:49:53.821Z,4.80
2023-12-21T04:52:20.868Z,4.80
2023-12-21T04:54:48.143Z,4.80
2023-12-21T04:57:16.405Z,4.80
2023-12-21T04:59:44.407Z,4.80
2023-12-21T05:02:11.687Z,4.90
2023-12-21T05:04:38.707Z,4.80
2023-12-21T05:07:12.098Z,4.80
2023-12-21T05:09:39.203Z,4.80
2023-12-21T05:12:08.855Z,4.90
2023-12-21T05:14:36.300Z,4.80
2023-12-21T05:17:08.298Z,4.80
2023-12-21T05:19:36.836Z,4.90
2023-12-21T05:22:03.792Z,4.90
2023-12-21T05:24:30.776Z,4.90
2023-12-21T05:26:57.637Z,4.80
2023-12-21T05:29:24.965Z,4.90
2023-12-21T05:31:52.045Z,4.80
2023-12-21T05:34:19.669Z,4.90
2023-12-21T05:36:46.662Z,4.90
2023-12-21T05:39:18.136Z,4.90
2023-12-21T05:41:46.647Z,4.90
2023-12-21T05:44:13.719Z,4.90
2023-12-21T05:46:43.172Z,4.90
2023-12-21T05:49:11.056Z,4.90
2023-12-21T05:51:38.743Z,4.90
2023-12-21T05:54:11.129Z,4.90
2023-12-21T05:56:38.145Z,5.00
2023-12-21T05:59:05.700Z,5.00
2023-12-21T06:01:34.543Z,4.90
2023-12-21T06:04:02.004Z,5.00
2023-12-21T06:06:29.311Z,5.00
2023-12-21T06:08:56.663Z,5.00
2023-12-21T06:11:23.523Z,4.90
2023-12-21T06:13:50.466Z,4.90
2023-12-21T06:16:17.821Z,4.90
2023-12-21T06:18:45.062Z,5.00
2023-12-21T06:21:14.378Z,5.00
2023-12-21T06:23:41.540Z,5.00
2023-12-21T06:26:08.746Z,5.00
2023-12-21T06:28:35.964Z,5.00
2023-12-21T06:31:03.069Z,5.00
2023-12-21T06:33:30.248Z,5.00
2023-12-21T06:35:57.456Z,5.00
2023-12-21T06:38:24.388Z,5.00
2023-12-21T06:40:51.749Z,5.00
2023-12-21T06:43:19.450Z,5.00
2023-12-21T06:45:48.640Z,5.00
2023-12-21T06:48:15.553Z,5.00
2023-12-21T06:50:42.751Z,5.00
2023-12-21T06:53:16.426Z,5.00
2023-12-21T06:55:44.314Z,5.00
2023-12-21T06:58:11.362Z,5.00
2023-12-21T07:00:38.180Z,5.00
2023-12-21T07:03:05.226Z,5.00
2023-12-21T07:05:32.106Z,5.00
2023-12-21T07:07:58.964Z,5.00
2023-12-21T07:10:25.758Z,5.00
2023-12-21T07:12:52.641Z,5.00
2023-12-21T07:15:20.137Z,5.00
2023-12-21T07:17:47.289Z,5.10
2023-12-21T07:20:14.202Z,5.00
2023-12-21T07:22:44.362Z,5.10
2023-12-21T07:25:11.377Z,5.10
2023-12-21T07:27:38.245Z,5.20
2023-12-21T07:30:05.851Z,5.20
2023-12-21T07:32:32.841Z,5.20
2023-12-21T07:34:59.629Z,5.20
2023-12-21T07:37:26.846Z,5.30
2023-12-21T07:39:53.754Z,5.30
2023-12-21T07:42:20.597Z,5.30
2023-12-21T07:44:47.592Z,5.40
2023-12-21T07:47:14.409Z,5.40
2023-12-21T07:49:41.334Z,5.40
2023-12-21T07:52:08.330Z,5.40
2023-12-21T07:54:35.411Z,5.40
2023-12-21T07:57:02.291Z,5.40
2023-12-21T07:59:29.112Z,5.40
2023-12-21T08:01:56.328Z,5.40
2023-12-21T08:04:23.337Z,5.50
2023-12-21T08:06:50.237Z,5.50
2023-12-21T08:09:17.138Z,5.50
2023-12-21T08:11:44.002Z,5.50
2023-12-21T08:14:11.136Z,5.50
2023-12-21T08:16:39.229Z,5.50
2023-12-21T08:19:06.469Z,5.50
2023-12-21T08:21:34.092Z,5.60
2023-12-21T08:24:02.936Z,5.60
2023-12-21T08:26:30.675Z,5.60
2023-12-21T08:28:57.935Z,5.60
2023-12-21T08:31:26.435Z,5.60
2023-12-21T08:33:53.773Z,5.60
2023-12-21T08:36:20.766Z,5.70
2023-12-21T08:38:47.608Z,5.60
2023-12-21T08:41:14.623Z,5.70
2023-12-21T08:43:41.743Z,5.70
2023-12-21T08:46:08.820Z,5.70
2023-12-21T08:48:36.151Z,5.70
2023-12-21T08:51:03.081Z,5.70
2023-12-21T08:53:29.917Z,5.70
2023-12-21T08:55:56.840Z,5.70
2023-12-21T08:58:23.743Z,5.70
2023-12-21T09:00:50.731Z,5.70
2023-12-21T09:03:18.367Z,5.70
2023-12-21T09:05:45.400Z,5.70
2023-12-21T09:08:12.302Z,5.80
2023-12-21T09:10:39.463Z,5.80
2023-12-21T09:13:06.375Z,5.80
2023-12-21T09:15:33.413Z,5.80
2023-12-21T09:18:00.382Z,5.80
2023-12-21T09:20:27.583Z,5.80
2023-12-21T09:22:54.578Z,5.80
2023-12-21T09:25:21.584Z,5.90
2023-12-21T09:27:49.069Z,5.90
2023-12-21T09:30:18.248Z,5.90
2023-12-21T09:32:49.957Z,5.90
2023-12-21T09:35:17.672Z,5.90
2023-12-21T09:37:44.612Z,5.90
2023-12-21T09:40:11.930Z,5.90
2023-12-21T09:42:57.623Z,6.00
2023-12-21T09:45:32.358Z,6.00
2023-12-21T09:48:00.534Z,6.00
2023-12-21T09:50:29.879Z,6.00
2023-12-21T09:52:57.815Z,6.00
2023-12-21T09:55:26.677Z,6.00
2023-12-21T09:57:54.968Z,6.10
2023-12-21T10:00:21.929Z,6.10
2023-12-21T10:02:49.008Z,6.10
2023-12-21T10:05:16.069Z,6.20
2023-12-21T10:07:43.859Z,6.10
2023-12-21T10:10:11.115Z,6.10
2023-12-21T10:12:42.212Z,6.20
2023-12-21T10:15:12.053Z,6.20
2023-12-21T10:17:40.016Z,6.20
2023-12-21T10:20:13.348Z,6.20
2023-12-21T10:22:41.552Z,6.20
2023-12-21T10:25:09.616Z,6.20
2023-12-21T10:27:37.090Z,6.30
2023-12-21T10:30:05.199Z,6.20
2023-12-21T10:32:33.235Z,6.20
2023-12-21T10:35:01.240Z,6.30
2023-12-21T10:37:29.245Z,6.30
2023-12-21T10:39:58.077Z,6.20
2023-12-21T10:42:25.710Z,6.30
2023-12-21T10:44:52.817Z,6.30
2023-12-21T10:47:21.905Z,6.20
2023-12-21T10:49:52.283Z,6.30
2023-12-21T10:52:20.877Z,6.20
2023-12-21T10:54:49.030Z,6.20
2023-12-21T10:57:17.431Z,6.30
2023-12-21T10:59:45.263Z,6.30
2023-12-21T11:02:15.245Z,6.30
2023-12-21T11:04:46.124Z,6.30
2023-12-21T11:07:15.567Z,6.30
2023-12-21T11:09:43.454Z,6.30
2023-12-21T11:12:10.448Z,6.30
2023-12-21T11:14:38.032Z,6.30
2023-12-21T11:17:05.918Z,6.40
2023-12-21T11:19:36.280Z,6.40
2023-12-21T11:22:05.398Z,6.40
2023-12-21T11:24:32.339Z,6.40
2023-12-21T11:27:00.673Z,6.40
2023-12-21T11:29:29.897Z,6.40
2023-12-21T11:31:58.220Z,6.40
2023-12-21T11:34:40.953Z,6.40
2023-12-21T11:37:25.552Z,6.50
2023-12-21T11:39:54.501Z,6.40
2023-12-21T11:42:32.991Z,6.40
2023-12-21T11:45:08.131Z,6.50
2023-12-21T11:47:35.541Z,6.50
2023-12-21T11:50:10.172Z,6.60
2023-12-21T11:52:39.168Z,6.60
2023-12-21T11:55:07.052Z,6.60
2023-12-21T11:57:37.052Z,6.60
2023-12-21T12:00:07.291Z,6.60
2023-12-21T12:02:36.130Z,6.60
2023-12-21T12:05:07.068Z,6.60
2023-12-21T12:07:35.678Z,6.60
2023-12-21T12:10:02.768Z,6.60
2023-12-21T12:12:30.749Z,6.60
2023-12-21T12:14:58.008Z,6.60
2023-12-21T12:17:24.887Z,6.70
2023-12-21T12:19:54.754Z,6.60
2023-12-21T12:22:22.038Z,6.60
2023-12-21T12:24:51.990Z,6.70
2023-12-21T12:27:18.975Z,6.70
2023-12-21T12:29:45.881Z,6.70
2023-12-21T12:32:12.954Z,6.70
2023-12-21T12:34:40.387Z,6.70
2023-12-21T12:37:08.868Z,6.70
2023-12-21T12:39:36.016Z,6.80
2023-12-21T12:42:06.643Z,6.80
2023-12-21T12:44:33.818Z,6.80
2023-12-21T12:47:00.969Z,6.80
2023-12-21T12:49:28.087Z,6.80
2023-12-21T12:51:58.132Z,6.80
2023-12-21T12:54:33.805Z,6.90
2023-12-21T12:57:05.140Z,6.90
2023-12-21T12:59:36.155Z,6.80
2023-12-21T13:02:03.495Z,6.80
2023-12-21T13:04:30.756Z,6.80
2023-12-21T13:06:57.760Z,6.90
2023-12-21T13:09:24.524Z,6.90
2023-12-21T13:11:51.625Z,6.90
2023-12-21T13:14:18.703Z,6.90
2023-12-21T13:16:48.685Z,6.90
2023-12-21T13:19:16.192Z,6.90
2023-12-21T13:21:45.481Z,7.00
2023-12-21T13:24:15.800Z,7.00
2023-12-21T13:26:42.734Z,7.00
2023-12-21T13:29:10.589Z,7.00
2023-12-21T13:31:37.594Z,7.10
2023-12-21T13:34:04.769Z,7.00
2023-12-21T13:36:32.706Z,7.00
2023-12-21T13:38:59.827Z,7.00
2023-12-21T13:41:26.742Z,7.00
2023-12-21T13:43:54.040Z,7.00
2023-12-21T13:46:23.218Z,7.00
2023-12-21T13:48:50.290Z,7.10
2023-12-21T13:51:17.429Z,7.00
2023-12-21T13:53:44.266Z,7.10
2023-12-21T13:56:11.457Z,7.10
2023-12-21T13:58:38.476Z,7.10
2023-12-21T14:01:05.652Z,7.10
2023-12-21T14:03:32.668Z,7.10
2023-12-21T14:05:59.848Z,7.10
2023-12-21T14:08:26.725Z,7.10
2023-12-21T14:10:53.713Z,7.10
2023-12-21T14:13:20.925Z,7.00
2023-12-21T14:15:47.811Z,7.10
2023-12-21T14:18:14.760Z,7.10
2023-12-21T14:20:41.696Z,7.10
2023-12-21T14:23:08.710Z,7.10
2023-12-21T14:25:36.056Z,7.10
2023-12-21T14:28:03.172Z,7.10
2023-12-21T14:30:30.152Z,7.10
2023-12-21T14:32:57.217Z,7.10
2023-12-21T14:35:24.206Z,7.10
2023-12-21T14:37:53.332Z,7.10
2023-12-21T14:40:20.486Z,7.10
2023-12-21T14:42:47.444Z,7.00
2023-12-21T14:45:15.031Z,7.00
2023-12-21T14:47:43.113Z,7.00
2023-12-21T14:50:10.534Z,7.20
2023-12-21T14:52:38.736Z,7.00
2023-12-21T14:55:06.688Z,7.00
2023-12-21T14:57:34.027Z,7.00
2023-12-21T15:00:02.500Z,6.90
2023-12-21T15:02:29.480Z,6.90
2023-12-21T15:04:56.771Z,6.90
2023-12-21T15:07:23.697Z,7.00
2023-12-21T15:09:52.438Z,6.90
2023-12-21T15:12:21.076Z,6.90
2023-12-21T15:14:48.419Z,6.90
2023-12-21T15:17:15.447Z,6.90
2023-12-21T15:19:42.465Z,6.80
2023-12-21T15:22:09.978Z,6.90
2023-12-21T15:24:37.353Z,6.90
2023-12-21T15:27:04.983Z,6.90
2023-12-21T15:29:31.946Z,6.90
2023-12-21T15:31:59.481Z,6.90
2023-12-21T15:34:27.417Z,6.90
2023-12-21T15:36:54.471Z,7.00
2023-12-21T15:39:21.707Z,6.90
2023-12-21T15:41:48.622Z,6.90
2023-12-21T15:44:15.557Z,6.90
2023-12-21T15:46:42.902Z,6.90
2023-12-21T15:49:09.862Z,7.00
2023-12-21T15:51:36.856Z,7.00
2023-12-21T15:54:03.892Z,7.00
2023-12-21T15:56:30.878Z,7.00
2023-12-21T15:58:57.793Z,7.00
2023-12-21T16:01:25.054Z,7.00
2023-12-21T16:03:53.333Z,7.00
2023-12-21T16:06:20.438Z,7.10
2023-12-21T16:08:48.545Z,7.00
2023-12-21T16:11:15.468Z,7.00
2023-12-21T16:13:42.328Z,7.00
2023-12-21T16:16:09.265Z,7.00
2023-12-21T16:18:36.255Z,7.00
2023-12-21T16:21:03.222Z,7.00
2023-12-21T16:23:30.427Z,7.00
2023-12-21T16:26:00.528Z,7.10
2023-12-21T16:28:27.749Z,7.10
2023-12-21T16:30:55.014Z,7.10
2023-12-21T16:33:33.456Z,7.00
2023-12-21T16:36:10.567Z,7.10
2023-12-21T16:38:42.297Z,7.10
2023-12-21T16:41:09.305Z,7.30
2023-12-21T16:43:36.840Z,7.10
2023-12-21T16:46:04.969Z,7.20
2023-12-21T16:48:32.118Z,7.10
2023-12-21T16:50:59.311Z,7.10
2023-12-21T16:53:27.048Z,7.20
2023-12-21T16:55:54.668Z,7.20
2023-12-21T16:58:23.763Z,7.20
2023-12-21T17:00:51.535Z,7.30
2023-12-21T17:03:21.259Z,7.30
2023-12-21T17:05:48.350Z,7.30
2023-12-21T17:08:15.304Z,7.30
2023-12-21T17:10:42.467Z,7.30
2023-12-21T17:13:09.975Z,7.30
2023-12-21T17:15:37.042Z,7.30
2023-12-21T17:18:04.432Z,7.30
2023-12-21T17:20:32.254Z,7.30
2023-12-21T17:23:00.993Z,7.30
2023-12-21T17:25:28.346Z,7.30
2023-12-21T17:27:56.736Z,7.40
2023-12-21T17:30:25.847Z,7.30
2023-12-21T17:32:53.280Z,7.30
2023-12-21T17:35:20.528Z,7.40
2023-12-21T17:37:48.070Z,7.30
2023-12-21T17:40:16.545Z,7.40
2023-12-21T17:42:43.804Z,7.40
2023-12-21T17:45:11.365Z,7.40
2023-12-21T17:47:39.170Z,7.40
2023-12-21T17:50:06.998Z,7.40
2023-12-21T17:52:34.275Z,7.40
2023-12-21T17:55:01.457Z,7.40
2023-12-21T17:57:28.888Z,7.40
2023-12-21T17:59:56.675Z,7.40
2023-12-21T18:02:23.477Z,7.40
2023-12-21T18:04:54.041Z,7.40
2023-12-21T18:07:24.435Z,7.40
2023-12-21T18:09:52.520Z,7.40
2023-12-21T18:12:19.628Z,7.50
2023-12-21T18:14:46.593Z,7.40
2023-12-21T18:17:13.523Z,7.50
2023-12-21T18:19:40.609Z,7.40
2023-12-21T18:22:09.613Z,7.50
2023-12-21T18:24:38.981Z,7.50
2023-12-21T18:27:06.459Z,7.50
2023-12-21T18:29:33.479Z,7.50
2023-12-21T18:32:00.628Z,7.50
2023-12-21T18:34:27.868Z,7.60
2023-12-21T18:36:54.830Z,7.60
2023-12-21T18:39:21.970Z,7.60
2023-12-21T18:41:49.465Z,7.70
2023-12-21T18:44:16.341Z,7.60
2023-12-21T18:46:45.524Z,7.60
2023-12-21T18:49:19.178Z,7.60
2023-12-21T18:54:52.454Z,7.70
2023-12-21T18:57:22.840Z,7.70
2023-12-21T18:59:49.854Z,7.70
2023-12-21T19:02:17.501Z,7.80
2023-12-21T19:04:44.695Z,7.80
2023-12-21T19:07:18.263Z,7.90
2023-12-21T19:09:45.586Z,7.90
2023-12-21T19:12:28.280Z,7.80
2023-12-21T19:15:04.240Z,7.80
2023-12-21T19:17:37.576Z,7.80
2023-12-21T19:20:08.400Z,7.80
2023-12-21T19:22:35.713Z,7.80
2023-12-21T19:25:38.393Z,7.80
2023-12-21T19:28:08.180Z,7.80
2023-12-21T19:33:37.270Z,7.70
2023-12-21T19:36:21.675Z,7.70
2023-12-21T19:38:54.354Z,7.80
2023-12-21T19:41:22.304Z,7.80
2023-12-21T19:43:49.387Z,7.90
2023-12-21T19:46:17.590Z,7.90
2023-12-21T19:48:46.873Z,7.90
2023-12-21T19:51:13.950Z,7.90
2023-12-21T19:53:41.805Z,7.90
2023-12-21T19:56:09.061Z,7.90
2023-12-21T19:58:36.297Z,7.90
2023-12-21T20:01:03.244Z,7.90
2023-12-21T20:03:30.354Z,7.90
2023-12-21T20:05:57.667Z,7.90
2023-12-21T20:08:27.242Z,7.90
2023-12-21T20:10:54.163Z,7.80
2023-12-21T20:13:21.248Z,7.90
2023-12-21T20:15:48.103Z,7.80
2023-12-21T20:18:19.596Z,7.80
2023-12-21T20:20:46.673Z,7.80
2023-12-21T20:23:15.821Z,7.80
2023-12-21T20:25:42.904Z,7.80
2023-12-21T20:28:10.003Z,7.80
2023-12-21T20:30:40.158Z,7.80
2023-12-21T20:33:10.663Z,7.80
2023-12-21T20:35:48.601Z,7.80
2023-12-21T20:38:16.195Z,7.80
2023-12-21T20:40:47.252Z,7.80
2023-12-21T20:43:39.837Z,7.90
2023-12-21T20:46:29.436Z,7.80
2023-12-21T20:49:01.666Z,7.70
2023-12-21T20:51:45.796Z,7.70
2023-12-21T20:54:25.085Z,7.60
2023-12-21T20:56:55.036Z,7.60
2023-12-21T20:59:44.065Z,7.50
2023-12-21T21:02:19.638Z,7.60
2023-12-21T21:08:33.926Z,7.40
2023-12-21T21:11:23.956Z,7.40
2023-12-21T21:16:30.075Z,7.40
2023-12-21T21:18:56.899Z,7.40
2023-12-21T21:21:23.729Z,7.30
2023-12-21T21:23:50.774Z,7.30
2023-12-21T21:26:17.921Z,7.40
2023-12-21T21:28:44.716Z,7.30
2023-12-21T21:31:18.049Z,7.30
2023-12-21T21:33:45.583Z,7.30
2023-12-21T21:36:13.702Z,7.30
2023-12-21T21:38:40.751Z,7.30
2023-12-21T21:41:09.220Z,7.30
2023-12-21T21:43:36.213Z,7.30
2023-12-21T21:46:07.547Z,7.20
2023-12-21T21:48:35.096Z,7.20
2023-12-21T21:51:01.924Z,7.20
2023-12-21T21:53:29.555Z,7.30
2023-12-21T21:55:58.556Z,7.30
2023-12-21T21:58:27.460Z,7.30
2023-12-21T22:00:54.592Z,7.20
2023-12-21T22:03:21.464Z,7.20
2023-12-21T22:05:48.348Z,7.20
2023-12-21T22:08:17.357Z,7.20
2023-12-21T22:10:44.215Z,7.20
2023-12-21T22:13:11.041Z,7.20
2023-12-21T22:15:38.512Z,7.20
2023-12-21T22:18:07.377Z,7.20
2023-12-21T22:20:34.682Z,7.20
2023-12-21T22:23:04.080Z,7.20
2023-12-21T22:25:31.087Z,7.20
2023-12-21T22:27:58.047Z,7.30
2023-12-21T22:30:24.852Z,7.20
2023-12-21T22:32:51.887Z,7.30
2023-12-21T22:35:19.212Z,7.30
2023-12-21T22:37:46.139Z,7.20
2023-12-21T22:40:13.485Z,7.30
2023-12-21T22:42:40.283Z,7.30
2023-12-21T22:45:07.274Z,7.30
2023-12-21T22:47:34.078Z,7.40
2023-12-21T22:50:01.128Z,7.40
2023-12-21T22:52:28.012Z,7.40
2023-12-21T22:54:54.769Z,7.40
2023-12-21T22:57:21.571Z,7.40
2023-12-21T22:59:48.437Z,7.40
2023-12-21T23:02:15.352Z,7.20
2023-12-21T23:04:42.227Z,7.20
2023-12-21T23:07:09.411Z,7.20
2023-12-21T23:09:36.497Z,7.10
2023-12-21T23:12:03.420Z,7.10
2023-12-21T23:14:30.145Z,7.10
2023-12-21T23:16:57.001Z,7.00
2023-12-21T23:19:23.892Z,7.00
2023-12-21T23:21:50.750Z,7.00
2023-12-21T23:24:17.464Z,7.10
2023-12-21T23:26:44.220Z,7.00
2023-12-21T23:29:11.034Z,7.00
2023-12-21T23:31:38.946Z,7.00
2023-12-21T23:34:05.779Z,7.00
2023-12-21T23:36:32.682Z,7.00
2023-12-21T23:38:59.463Z,6.90
2023-12-21T23:41:26.185Z,6.90
2023-12-21T23:43:52.987Z,6.80
2023-12-21T23:46:19.866Z,6.60
2023-12-21T23:48:48.262Z,6.60
2023-12-21T23:51:15.129Z,6.60
2023-12-21T23:53:41.822Z,6.50
2023-12-21T23:56:08.832Z,6.50
2023-12-21T23:58:35.622Z,6.60
